EREK1: Neosho River near Erie

Data processed at Fri Jan 05 2018 23:22


All information presented herein is the property of the government of the United States of America and may be revised or deleted at any time without prior notice.
Dissemination of this information without the expressed written consent of the Public Affairs Office, Tulsa District U.S. Army Corps of Engineers is strictly prohibited.
These data are gathered electronically and, as presented, have not undergone any form of quality control. These data are not guaranteed to be valid or correct.
Go to home page.
Go to station list.

Upstream stations:

Downstream station:
Previous Day
Next Day
Current Day
    
SHEF ID:       EREK1     NEOSHO R NR ERIE, KS
STATION TYPE:  

               PRECIP     STAGE  RIV-FLOW  BAT-LOAD
                   in        ft       cfs      volt
              Ccp-Rev   Ccp-Rev   Ccp-Rev   Ccp-Rev
(US/Central)
01/03 00:00      0.00     11.49       167     12.60
01/03 01:00      0.00     11.49       167     12.60
01/03 02:00      0.00     11.48       164     12.60
01/03 03:00      0.00     11.49       167     12.60
01/03 04:00      0.00     11.49       167     12.60
01/03 05:00      0.00     11.49       167     12.60
01/03 06:00      0.00     11.48       164     12.54
01/03 07:00      0.00     11.49       167     12.54
01/03 08:00      0.00     11.50       171     12.48
01/03 09:00      0.00     11.49       167     12.54
01/03 10:00      0.00     11.49       167     13.48
01/03 11:00      0.00     11.48       164     14.18
01/03 12:00      0.00     11.45       153     14.47
01/03 13:00      0.00     11.46       156     14.71
01/03 14:00      0.00     11.47       160     14.71
01/03 15:00      0.00     11.48       164     14.65
01/03 16:00      0.00     11.49       167     14.47
01/03 17:00      0.00     11.51       175     14.35
01/03 18:00      0.00     11.50       171     13.83
01/03 19:00      0.00     11.51       175     13.12
01/03 20:00      0.00     11.50       171     12.77
01/03 21:00      0.00     11.50       171     12.71
01/03 22:00      0.00     11.52       179     12.65
01/03 23:00      0.00     11.49       167     12.65